Time;durP1;ratioP1;P1;durP2;ratioP2;P2;SDS_P1;SDS_P2;PMS_P1;PMS_P2;Temp;Humidity;BMP_temperature;BMP_pressure;BME280_temperature;BME280_humidity;BME280_pressure;Samples;Min_cycle;Max_cycle;Signal;HPM_P1;HPM_P2
2021/07/12 00:00:11;;;;;;;17.97;16.33;;;18.40;95.40;;;;;;5113138;28;20078;-66
2021/07/12 00:02:37;;;;;;;17.35;15.77;;;18.40;95.40;;;;;;5112461;28;20442;-66
2021/07/12 00:05:04;;;;;;;20.47;17.60;;;18.40;95.30;;;;;;5112703;28;20039;-67
2021/07/12 00:07:30;;;;;;;19.23;17.33;;;18.30;95.30;;;;;;5112177;28;20067;-66
2021/07/12 00:09:55;;;;;;;16.83;15.23;;;18.30;95.40;;;;;;5112240;28;20075;-66
2021/07/12 00:12:21;;;;;;;21.47;19.37;;;18.20;95.50;;;;;;5112617;28;20048;-67
2021/07/12 00:14:47;;;;;;;22.17;19.87;;;18.20;95.60;;;;;;5112404;28;20138;-66
2021/07/12 00:17:12;;;;;;;21.80;19.83;;;18.20;95.70;;;;;;5112307;28;20051;-67
2021/07/12 00:19:38;;;;;;;21.83;19.73;;;18.10;95.80;;;;;;5112707;28;20051;-66
2021/07/12 00:22:04;;;;;;;21.50;19.50;;;18.10;95.90;;;;;;5111891;28;20048;-66
2021/07/12 00:24:30;;;;;;;22.13;20.03;;;18.10;96.00;;;;;;5112233;28;20048;-66
2021/07/12 00:26:55;;;;;;;22.67;20.40;;;18.10;96.00;;;;;;5112906;28;20158;-67
2021/07/12 00:29:21;;;;;;;23.40;21.13;;;18.10;96.10;;;;;;5111783;28;20050;-66
2021/07/12 00:31:47;;;;;;;23.57;21.47;;;18.10;96.20;;;;;;5112458;28;20412;-67
2021/07/12 00:34:12;;;;;;;23.40;21.23;;;18.10;96.20;;;;;;5112258;28;20051;-69
2021/07/12 00:36:38;;;;;;;23.70;21.57;;;18.10;96.20;;;;;;5111763;28;20447;-69
2021/07/12 00:39:05;;;;;;;24.70;22.40;;;18.00;96.30;;;;;;5112115;28;20087;-69
2021/07/12 00:41:30;;;;;;;23.57;21.37;;;18.00;96.20;;;;;;5112010;28;20055;-68
2021/07/12 00:43:56;;;;;;;23.60;21.40;;;18.00;96.20;;;;;;5111682;28;20385;-68
2021/07/12 00:46:22;;;;;;;22.60;20.63;;;18.00;96.30;;;;;;5112178;28;20047;-68
2021/07/12 00:48:47;;;;;;;21.13;19.20;;;18.00;96.30;;;;;;5112598;28;20063;-69
2021/07/12 00:51:13;;;;;;;20.33;18.40;;;18.00;96.30;;;;;;5111236;28;20051;-69
2021/07/12 00:53:39;;;;;;;20.90;18.93;;;18.00;96.30;;;;;;5112233;28;20047;-69
2021/07/12 00:56:05;;;;;;;23.53;21.33;;;18.00;96.30;;;;;;5112251;28;20199;-66
2021/07/12 00:58:31;;;;;;;22.83;20.73;;;18.00;96.30;;;;;;5111210;28;20073;-67
2021/07/12 01:00:59;;;;;;;23.40;21.20;;;18.00;96.30;;;;;;5112068;28;20503;-66
2021/07/12 01:03:25;;;;;;;24.00;21.70;;;18.00;96.30;;;;;;5111898;28;20070;-67
2021/07/12 01:05:53;;;;;;;18.90;17.20;;;18.10;96.30;;;;;;5111316;28;20484;-66
2021/07/12 01:08:19;;;;;;;19.57;17.77;;;18.10;96.30;;;;;;5111677;28;20047;-67
2021/07/12 01:10:55;;;;;;;22.70;20.70;;;18.10;96.30;;;;;;5112069;28;20492;-67
2021/07/12 01:13:30;;;;;;;22.17;20.17;;;18.10;96.30;;;;;;5111820;28;20063;-67
2021/07/12 01:16:22;;;;;;;21.33;19.23;;;18.10;96.30;;;;;;5112004;28;20062;-67
2021/07/12 01:19:07;;;;;;;22.70;20.53;;;18.10;96.30;;;;;;5110971;28;20123;-67
2021/07/12 01:22:04;;;;;;;23.03;20.77;;;18.10;96.60;;;;;;5112118;28;20109;-67
2021/07/12 01:25:01;;;;;;;21.63;19.70;;;18.10;96.20;;;;;;5111946;28;20048;-67
2021/07/12 01:28:11;;;;;;;18.70;17.00;;;18.00;96.30;;;;;;5111615;28;20047;-67
2021/07/12 01:31:14;;;;;;;17.83;16.17;;;18.00;96.30;;;;;;5111893;28;20381;-67
2021/07/12 01:34:26;;;;;;;20.93;18.93;;;18.10;96.30;;;;;;5111202;28;20108;-67
2021/07/12 01:36:57;;;;;;;;;;;18.20;96.20;;;;;;5111890;28;20043;-67
2021/07/12 01:39:28;;;;;;;21.55;19.67;;;18.10;96.10;;;;;;5110743;28;19990;-68
2021/07/12 01:42:32;;;;;;;23.13;20.98;;;18.20;96.10;;;;;;5111623;28;20468;-67
2021/07/12 01:45:10;;;;;;;22.47;20.37;;;18.20;96.00;;;;;;5028849;28;20128;-67
2021/07/12 01:48:03;;;;;;;23.10;21.00;;;18.20;95.90;;;;;;5100647;28;20380;-67
2021/07/12 01:51:00;;;;;;;23.90;21.60;;;18.20;95.90;;;;;;5111489;28;20138;-67
2021/07/12 01:53:38;;;;;;;22.43;20.37;;;18.20;95.80;;;;;;5094257;28;20837;-67
2021/07/12 01:56:22;;;;;;;24.57;22.10;;;18.20;95.90;;;;;;5111368;28;20048;-67
2021/07/12 01:59:13;;;;;;;22.60;20.50;;;18.20;95.90;;;;;;5111359;28;20456;-67
2021/07/12 02:01:41;;;;;;;21.43;19.53;;;18.20;95.90;;;;;;5111006;28;20048;-67
2021/07/12 02:04:08;;;;;;;23.77;21.47;;;18.10;95.90;;;;;;5111433;28;20301;-67
2021/07/12 02:06:41;;;;;;;19.87;18.10;;;18.10;95.90;;;;;;5111558;28;20123;-67
2021/07/12 02:09:10;;;;;;;20.20;18.43;;;18.10;96.00;;;;;;5111120;28;20088;-67
2021/07/12 02:11:40;;;;;;;24.67;22.47;;;18.00;96.00;;;;;;5111347;28;20568;-67
2021/07/12 02:14:06;;;;;;;23.47;21.37;;;18.00;96.10;;;;;;5111469;28;20499;-67
2021/07/12 02:16:34;;;;;;;24.27;21.83;;;18.00;96.20;;;;;;5110176;28;20052;-68
2021/07/12 02:19:04;;;;;;;26.40;23.70;;;18.00;96.30;;;;;;5111345;28;20051;-67
2021/07/12 02:21:33;;;;;;;25.10;22.57;;;17.80;96.20;;;;;;5110018;28;20052;-68
2021/07/12 02:24:02;;;;;;;21.53;19.33;;;17.90;96.30;;;;;;5111408;28;20050;-68
2021/07/12 02:26:29;;;;;;;24.83;22.53;;;17.90;96.40;;;;;;5111064;28;20097;-68
2021/07/12 02:28:56;;;;;;;25.07;22.77;;;17.90;96.40;;;;;;5111323;28;20458;-68
2021/07/12 02:31:23;;;;;;;23.47;21.37;;;17.90;96.40;;;;;;5114629;28;20057;-68
2021/07/12 02:33:49;;;;;;;23.80;21.50;;;17.90;96.40;;;;;;5114754;28;20138;-68
2021/07/12 02:36:15;;;;;;;24.77;22.37;;;17.80;96.40;;;;;;5113945;28;20054;-68
2021/07/12 02:38:42;;;;;;;26.87;24.47;;;17.80;96.50;;;;;;5115265;28;20461;-68
2021/07/12 02:41:10;;;;;;;26.43;23.90;;;17.80;96.50;;;;;;5114657;28;20126;-68
2021/07/12 02:43:37;;;;;;;24.97;22.40;;;17.80;96.60;;;;;;5114060;28;20131;-68
2021/07/12 02:46:07;;;;;;;26.13;23.57;;;17.80;96.60;;;;;;5114658;28;20050;-68
2021/07/12 02:48:33;;;;;;;29.23;26.27;;;17.80;96.60;;;;;;5114676;28;20043;-68
2021/07/12 02:51:03;;;;;;;30.70;27.57;;;17.70;96.60;;;;;;5113840;28;20043;-68
2021/07/12 02:53:32;;;;;;;27.10;24.40;;;17.70;96.70;;;;;;5114331;28;20052;-67
2021/07/12 02:55:58;;;;;;;22.83;20.57;;;17.70;96.80;;;;;;5114634;28;20507;-67
2021/07/12 02:58:24;;;;;;;25.20;22.80;;;17.70;96.80;;;;;;5113197;28;20441;-68
2021/07/12 03:00:50;;;;;;;27.03;24.53;;;17.70;96.80;;;;;;5114150;28;20504;-68
2021/07/12 03:03:16;;;;;;;25.90;23.50;;;17.70;96.90;;;;;;5114160;28;20065;-68
2021/07/12 03:05:42;;;;;;;28.17;25.47;;;17.70;96.90;;;;;;5113572;27;20054;-68
2021/07/12 03:08:10;;;;;;;27.83;25.23;;;17.70;96.90;;;;;;5114182;28;20040;-67
2021/07/12 03:10:46;;;;;;;26.77;24.27;;;17.80;96.90;;;;;;5113398;28;20123;-68
2021/07/12 03:13:18;;;;;;;26.87;24.20;;;17.80;96.90;;;;;;5113906;28;20044;-68
2021/07/12 03:15:50;;;;;;;27.00;24.40;;;17.80;96.90;;;;;;5114079;28;20043;-68
2021/07/12 03:18:23;;;;;;;27.90;25.27;;;17.80;96.90;;;;;;5112813;28;20127;-68
2021/07/12 03:20:50;;;;;;;22.97;20.87;;;17.80;96.90;;;;;;5114204;27;20070;-68
2021/07/12 03:23:17;;;;;;;27.47;24.87;;;17.80;96.90;;;;;;5113446;28;20119;-68
2021/07/12 03:25:52;;;;;;;27.43;24.93;;;17.80;96.90;;;;;;5113046;28;20568;-67
2021/07/12 03:28:19;;;;;;;27.17;24.70;;;17.80;97.00;;;;;;5113635;28;20063;-68
2021/07/12 03:30:46;;;;;;;25.43;23.10;;;17.90;97.00;;;;;;5113938;28;20092;-67
2021/07/12 03:33:15;;;;;;;27.53;25.03;;;17.90;97.00;;;;;;5112765;28;20048;-68
2021/07/12 03:35:44;;;;;;;22.90;20.83;;;17.90;97.00;;;;;;5113757;28;20066;-67
2021/07/12 03:38:15;;;;;;;25.60;23.00;;;17.90;97.10;;;;;;5113163;28;20054;-68
2021/07/12 03:40:41;;;;;;;28.38;25.35;;;17.90;97.00;;;;;;5112786;28;20114;-68
2021/07/12 03:43:09;;;;;;;30.80;27.70;;;17.80;97.00;;;;;;5113642;28;20044;-68
2021/07/12 03:45:35;;;;;;;25.80;23.30;;;17.80;97.10;;;;;;5113552;28;20201;-67
2021/07/12 03:48:01;;;;;;;30.07;27.07;;;17.80;97.20;;;;;;5112807;28;20048;-67
2021/07/12 03:50:28;;;;;;;25.23;22.83;;;17.90;97.20;;;;;;5113007;28;20048;-67
2021/07/12 03:52:54;;;;;;;24.87;22.50;;;17.80;97.30;;;;;;5112450;28;20480;-68
2021/07/12 03:55:23;;;;;;;26.97;24.47;;;17.80;97.30;;;;;;5113269;28;20052;-67
2021/07/12 03:57:51;;;;;;;27.00;24.43;;;17.90;97.30;;;;;;5113662;28;20043;-67
2021/07/12 04:00:19;;;;;;;26.57;24.03;;;17.90;97.20;;;;;;5112301;28;20047;-68
2021/07/12 04:02:46;;;;;;;27.00;24.37;;;17.90;97.30;;;;;;5113017;28;20104;-68
2021/07/12 04:05:13;;;;;;;21.07;19.10;;;17.90;97.30;;;;;;5112922;28;20044;-68
2021/07/12 04:07:39;;;;;;;22.63;20.40;;;17.90;97.30;;;;;;5112414;28;20131;-68
2021/07/12 04:10:10;;;;;;;25.63;23.00;;;17.80;97.30;;;;;;5113192;28;20062;-68
2021/07/12 04:12:36;;;;;;;25.77;23.33;;;17.90;97.40;;;;;;5112914;28;20474;-68
2021/07/12 04:15:03;;;;;;;25.17;22.77;;;17.90;97.50;;;;;;5110103;28;20075;-67
2021/07/12 04:17:28;;;;;;;28.73;25.83;;;17.90;97.40;;;;;;5110966;28;20051;-68
2021/07/12 04:19:56;;;;;;;27.67;24.97;;;17.90;97.40;;;;;;5112377;28;20432;-68
2021/07/12 04:22:23;;;;;;;29.17;26.30;;;17.90;97.40;;;;;;5111476;28;20078;-68
2021/07/12 04:24:50;;;;;;;29.80;26.80;;;17.80;97.50;;;;;;5112625;28;20047;-68
2021/07/12 04:27:17;;;;;;;28.97;26.07;;;17.90;97.60;;;;;;5112515;28;20055;-68
2021/07/12 04:29:42;;;;;;;24.93;22.53;;;17.90;97.60;;;;;;5111962;28;20043;-68
2021/07/12 04:32:09;;;;;;;26.17;23.70;;;18.00;97.70;;;;;;5112605;28;20054;-68
2021/07/12 04:34:35;;;;;;;27.53;24.93;;;18.00;97.60;;;;;;5112653;28;20048;-68
2021/07/12 04:37:01;;;;;;;31.13;27.97;;;18.00;97.60;;;;;;5111859;28;20054;-68
2021/07/12 04:39:29;;;;;;;33.63;30.27;;;18.00;97.60;;;;;;5112260;28;20051;-68
2021/07/12 04:41:55;;;;;;;35.77;32.13;;;18.10;97.60;;;;;;5111867;28;20100;-68
2021/07/12 04:44:21;;;;;;;35.83;31.97;;;18.10;97.50;;;;;;5112286;28;20193;-68
2021/07/12 04:46:48;;;;;;;35.73;31.20;;;18.10;97.50;;;;;;5112393;28;20484;-68
2021/07/12 04:49:14;;;;;;;45.33;39.13;;;18.00;97.50;;;;;;5111026;28;20512;-68
2021/07/12 04:51:39;;;;;;;40.03;35.37;;;18.10;97.60;;;;;;5111779;28;20071;-68
2021/07/12 04:54:05;;;;;;;32.73;29.40;;;18.10;97.60;;;;;;5112701;28;20412;-68
2021/07/12 04:56:31;;;;;;;41.27;36.90;;;18.10;97.60;;;;;;5111433;28;20130;-69
2021/07/12 04:58:57;;;;;;;36.23;32.53;;;18.10;97.60;;;;;;5112242;28;20065;-68
2021/07/12 05:01:24;;;;;;;41.57;37.27;;;18.10;97.50;;;;;;5111836;28;20047;-69
2021/07/12 05:03:52;;;;;;;52.13;41.70;;;18.10;97.50;;;;;;5111283;28;20084;-68
2021/07/12 05:06:18;;;;;;;38.17;34.10;;;18.10;97.50;;;;;;5111989;28;20079;-68
2021/07/12 05:08:43;;;;;;;42.83;38.17;;;18.10;97.50;;;;;;5112054;28;20063;-68
2021/07/12 05:11:09;;;;;;;48.53;42.77;;;18.20;97.60;;;;;;5110960;28;20047;-68
2021/07/12 05:13:37;;;;;;;48.27;41.30;;;18.10;97.50;;;;;;5111956;28;20120;-68
2021/07/12 05:16:03;;;;;;;54.07;42.50;;;18.20;97.60;;;;;;5111813;28;20159;-68
2021/07/12 05:18:30;;;;;;;43.33;36.67;;;18.30;97.50;;;;;;5110863;28;20112;-68
2021/07/12 05:20:56;;;;;;;51.27;43.37;;;18.20;97.50;;;;;;5111240;28;20441;-67
2021/07/12 05:23:23;;;;;;;49.00;40.33;;;18.20;97.50;;;;;;5111210;28;20063;-67
2021/07/12 05:25:48;;;;;;;54.23;42.87;;;18.20;97.50;;;;;;5110683;28;20070;-68
2021/07/12 05:28:15;;;;;;;58.97;47.43;;;18.30;97.50;;;;;;5111308;28;20192;-68
2021/07/12 05:30:41;;;;;;;51.50;45.37;;;18.20;97.50;;;;;;5111829;28;20043;-67
2021/07/12 05:33:07;;;;;;;56.80;45.57;;;18.30;97.50;;;;;;5110751;28;20486;-68
2021/07/12 05:35:33;;;;;;;54.27;43.20;;;18.30;97.50;;;;;;5111293;28;20135;-67
2021/07/12 05:37:59;;;;;;;59.80;47.50;;;18.30;97.50;;;;;;5111638;28;20051;-68
2021/07/12 05:40:26;;;;;;;54.10;44.13;;;18.20;97.50;;;;;;5110640;28;20458;-68
2021/07/12 05:42:52;;;;;;;57.53;47.23;;;18.20;97.50;;;;;;5111421;28;20069;-68
2021/07/12 05:45:18;;;;;;;55.83;45.17;;;18.20;97.60;;;;;;5110366;28;20054;-68
2021/07/12 05:47:43;;;;;;;49.90;41.87;;;18.30;97.60;;;;;;5111361;28;20056;-68
2021/07/12 05:50:10;;;;;;;50.00;41.97;;;18.20;97.60;;;;;;5111209;28;20051;-68
2021/07/12 05:52:36;;;;;;;46.60;41.70;;;18.30;97.70;;;;;;5110717;28;20048;-68
2021/07/12 05:55:03;;;;;;;51.73;44.30;;;18.40;97.60;;;;;;5111380;28;20054;-68
2021/07/12 05:57:29;;;;;;;46.30;40.97;;;18.40;97.50;;;;;;5111134;28;20047;-68
2021/07/12 05:59:55;;;;;;;41.97;37.57;;;18.40;97.40;;;;;;5110642;28;20089;-68
2021/07/12 06:02:20;;;;;;;46.00;41.20;;;18.50;97.40;;;;;;5111233;28;20048;-68
2021/07/12 06:04:46;;;;;;;38.33;34.43;;;18.60;97.30;;;;;;5112732;28;20047;-68
2021/07/12 06:07:12;;;;;;;39.43;35.30;;;18.60;97.20;;;;;;5114014;28;20147;-68
2021/07/12 06:09:38;;;;;;;44.93;40.43;;;18.70;97.10;;;;;;5115682;28;20043;-68
2021/07/12 06:12:04;;;;;;;44.23;39.70;;;18.80;96.90;;;;;;5115105;28;20097;-68
2021/07/12 06:14:29;;;;;;;44.00;39.50;;;18.80;96.70;;;;;;5114056;28;20381;-68
2021/07/12 06:16:55;;;;;;;36.83;33.20;;;18.90;96.60;;;;;;5115095;28;20067;-68
2021/07/12 06:19:21;;;;;;;41.40;37.13;;;18.90;96.40;;;;;;5114763;28;20418;-67
2021/07/12 06:21:46;;;;;;;38.80;35.03;;;19.00;96.40;;;;;;5114264;28;20456;-68
2021/07/12 06:24:12;;;;;;;38.17;34.40;;;19.00;96.30;;;;;;5114684;28;20101;-68
2021/07/12 06:26:38;;;;;;;34.93;31.70;;;19.00;96.30;;;;;;5114917;28;20100;-68
2021/07/12 06:29:04;;;;;;;35.30;31.97;;;19.10;96.60;;;;;;5114114;28;20128;-68
2021/07/12 06:31:30;;;;;;;39.33;35.23;;;19.10;96.00;;;;;;5114809;28;20052;-68
2021/07/12 06:33:55;;;;;;;34.70;31.53;;;19.20;96.00;;;;;;5114798;28;20048;-68
2021/07/12 06:36:21;;;;;;;34.43;31.20;;;19.30;95.90;;;;;;5113646;28;20059;-68
2021/07/12 06:38:47;;;;;;;36.03;32.63;;;19.30;95.80;;;;;;5114728;28;20063;-68
2021/07/12 06:41:12;;;;;;;31.03;27.93;;;19.30;95.90;;;;;;5114318;28;20057;-68
2021/07/12 06:43:38;;;;;;;30.40;27.43;;;19.50;95.80;;;;;;5113826;28;20476;-68
2021/07/12 06:46:03;;;;;;;30.00;27.13;;;19.50;95.80;;;;;;5114294;28;20155;-68
2021/07/12 06:48:29;;;;;;;31.87;29.07;;;19.50;95.80;;;;;;5114191;28;20472;-68
2021/07/12 06:50:55;;;;;;;27.60;25.20;;;19.60;95.70;;;;;;5114308;28;20127;-68
2021/07/12 06:53:21;;;;;;;24.97;22.77;;;19.70;95.60;;;;;;5114184;28;20048;-68
2021/07/12 06:55:47;;;;;;;27.43;24.80;;;19.70;95.40;;;;;;5113778;28;20429;-68
2021/07/12 06:58:13;;;;;;;28.07;25.60;;;19.70;95.10;;;;;;5113969;28;20051;-68
2021/07/12 07:00:41;;;;;;;28.20;25.53;;;19.80;95.10;;;;;;5114313;28;20054;-68
2021/07/12 07:03:08;;;;;;;26.23;23.87;;;19.80;95.10;;;;;;5113842;28;20048;-68
2021/07/12 07:05:35;;;;;;;25.27;22.93;;;19.80;95.00;;;;;;5114154;28;20055;-68
2021/07/12 07:08:03;;;;;;;23.67;21.63;;;19.90;94.90;;;;;;5114358;28;20056;-68
2021/07/12 07:10:29;;;;;;;24.83;22.77;;;19.90;94.60;;;;;;5113014;28;20066;-68
2021/07/12 07:12:55;;;;;;;24.77;22.60;;;20.00;94.40;;;;;;5114142;28;20559;-68
2021/07/12 07:15:21;;;;;;;22.20;20.20;;;20.10;94.40;;;;;;5113018;27;20036;-67
2021/07/12 07:17:46;;;;;;;23.90;21.73;;;20.10;94.30;;;;;;5112104;28;20404;-68
2021/07/12 07:20:13;;;;;;;24.00;21.90;;;20.20;94.30;;;;;;5113115;28;20087;-68
2021/07/12 07:22:39;;;;;;;23.37;21.17;;;20.30;94.10;;;;;;5112981;28;20055;-68
2021/07/12 07:25:05;;;;;;;24.00;21.87;;;20.30;94.10;;;;;;5112745;28;20043;-68
2021/07/12 07:27:32;;;;;;;24.03;22.00;;;20.30;94.10;;;;;;5112839;28;20048;-68
2021/07/12 07:29:58;;;;;;;24.27;22.00;;;20.30;94.10;;;;;;5113222;28;20055;-68
2021/07/12 07:32:24;;;;;;;21.83;19.77;;;20.40;94.10;;;;;;5112180;28;20141;-67
2021/07/12 07:34:50;;;;;;;23.57;21.43;;;20.40;93.90;;;;;;5113458;28;20066;-68
2021/07/12 07:37:15;;;;;;;19.83;18.13;;;20.40;93.60;;;;;;5112943;28;20062;-68
2021/07/12 07:39:42;;;;;;;19.37;17.77;;;20.50;93.50;;;;;;5112442;28;20124;-68
2021/07/12 07:42:07;;;;;;;20.60;18.63;;;20.60;93.30;;;;;;5112327;28;20039;-68
2021/07/12 07:44:33;;;;;;;21.57;19.77;;;20.70;93.00;;;;;;5112857;28;20341;-68
2021/07/12 07:46:59;;;;;;;22.10;20.20;;;20.80;92.80;;;;;;5112072;27;20051;-68
2021/07/12 07:49:25;;;;;;;20.23;18.50;;;20.90;92.70;;;;;;5112595;28;20051;-68
2021/07/12 07:51:51;;;;;;;18.23;16.63;;;21.00;92.50;;;;;;5111441;28;20051;-68
2021/07/12 07:54:17;;;;;;;16.93;15.40;;;21.10;92.30;;;;;;5112139;28;20084;-68
2021/07/12 07:56:48;;;;;;;16.50;14.80;;;21.20;92.10;;;;;;5112265;28;20047;-68
2021/07/12 07:59:14;;;;;;;17.35;15.75;;;21.30;91.90;;;;;;5111470;28;20461;-68
2021/07/12 08:01:41;;;;;;;16.70;15.25;;;21.30;91.70;;;;;;5112304;28;20071;-67
2021/07/12 08:04:06;;;;;;;17.47;15.87;;;21.30;91.40;;;;;;5112489;28;20480;-68
2021/07/12 08:06:32;;;;;;;17.27;15.57;;;21.40;91.30;;;;;;5110972;28;20058;-67
2021/07/12 08:08:58;;;;;;;16.85;15.30;;;21.30;91.10;;;;;;5111953;28;20472;-68
2021/07/12 08:11:24;;;;;;;15.60;14.20;;;21.40;90.80;;;;;;5111951;28;20058;-68
2021/07/12 08:13:49;;;;;;;15.52;14.23;;;21.40;90.50;;;;;;5111019;28;20044;-68
2021/07/12 08:16:15;;;;;;;15.95;14.45;;;21.40;90.40;;;;;;5111471;28;20388;-67
2021/07/12 08:18:41;;;;;;;16.50;15.10;;;21.40;90.30;;;;;;5112037;28;20046;-67
2021/07/12 08:21:08;;;;;;;16.17;14.77;;;21.40;90.20;;;;;;5111154;28;20567;-68
2021/07/12 08:23:34;;;;;;;13.95;12.82;;;21.40;90.10;;;;;;5111551;28;20213;-67
2021/07/12 08:26:00;;;;;;;13.90;12.60;;;21.40;90.00;;;;;;5111866;28;20048;-68
2021/07/12 08:28:26;;;;;;;13.85;12.50;;;21.40;89.60;;;;;;5110225;28;20047;-68
2021/07/12 08:30:53;;;;;;;13.90;12.73;;;21.40;89.20;;;;;;5111713;28;20047;-67
2021/07/12 08:33:20;;;;;;;14.33;13.07;;;21.40;88.90;;;;;;5111954;28;20051;-67
2021/07/12 08:35:46;;;;;;;14.93;13.57;;;21.40;88.80;;;;;;5111577;28;20511;-66
2021/07/12 08:38:11;;;;;;;14.80;13.57;;;21.40;89.10;;;;;;5112099;28;20047;-67
2021/07/12 08:40:37;;;;;;;15.40;14.10;;;21.40;88.90;;;;;;5112532;28;20051;-67
2021/07/12 08:43:03;;;;;;;14.95;13.60;;;21.40;89.00;;;;;;5111928;28;20081;-66
2021/07/12 08:45:29;;;;;;;15.30;13.80;;;21.40;88.80;;;;;;5112066;28;20071;-67
2021/07/12 08:47:55;;;;;;;14.60;13.40;;;21.40;89.10;;;;;;5112326;28;20047;-67
2021/07/12 08:50:23;;;;;;;15.30;14.05;;;21.30;88.90;;;;;;5111222;28;20067;-67
2021/07/12 08:52:51;;;;;;;16.05;14.50;;;21.30;89.10;;;;;;5112028;28;20051;-67
2021/07/12 08:55:17;;;;;;;14.57;13.27;;;21.40;89.60;;;;;;5111109;28;20164;-68
2021/07/12 08:58:08;;;;;;;12.88;11.77;;;21.40;90.00;;;;;;5112169;28;20081;-66
2021/07/12 09:00:38;;;;;;;13.20;12.00;;;21.40;88.90;;;;;;5112050;28;20450;-65
2021/07/12 09:03:43;;;;;;;13.43;12.10;;;21.50;88.40;;;;;;5111276;28;20114;-65
2021/07/12 09:06:11;;;;;;;13.10;11.90;;;21.50;87.90;;;;;;5110940;28;20048;-65
2021/07/12 09:08:41;;;;;;;12.27;11.18;;;21.50;88.40;;;;;;5111093;28;20043;-66
2021/07/12 09:11:18;;;;;;;11.75;10.65;;;21.50;88.20;;;;;;5110694;28;20397;-65
2021/07/12 09:13:52;;;;;;;10.57;9.68;;;21.60;88.00;;;;;;5111151;28;20063;-65
2021/07/12 09:16:43;;;;;;;12.00;11.00;;;21.70;87.10;;;;;;5110980;28;20174;-65
2021/07/12 09:19:32;;;;;;;10.52;9.57;;;21.80;86.80;;;;;;5111614;28;20384;-65
2021/07/12 09:22:03;;;;;;;11.40;10.40;;;21.90;85.60;;;;;;5111696;28;20048;-65
2021/07/12 09:24:37;;;;;;;10.98;10.05;;;22.00;85.60;;;;;;5110550;28;20487;-65
2021/07/12 09:27:15;;;;;;;11.63;10.50;;;22.20;85.80;;;;;;5111666;28;20353;-65
2021/07/12 09:29:46;;;;;;;9.43;8.55;;;22.50;84.90;;;;;;5111814;28;20044;-65
2021/07/12 09:32:18;;;;;;;8.85;8.05;;;22.80;84.40;;;;;;5111233;28;20105;-65
2021/07/12 09:34:46;;;;;;;8.90;8.10;;;23.00;82.80;;;;;;5111553;28;20044;-65
2021/07/12 09:37:14;;;;;;;9.07;8.00;;;23.20;81.60;;;;;;5110454;28;20134;-66
2021/07/12 09:39:48;;;;;;;9.50;8.63;;;23.30;80.60;;;;;;5114306;28;20070;-66
2021/07/12 09:42:18;;;;;;;10.57;9.57;;;23.40;79.60;;;;;;5112396;28;20048;-66
2021/07/12 09:44:46;;;;;;;11.73;10.52;;;23.60;78.80;;;;;;5114480;28;20121;-66
2021/07/12 09:47:19;;;;;;;8.68;7.88;;;23.70;79.00;;;;;;5114550;28;20456;-65
2021/07/12 09:49:46;;;;;;;12.90;11.68;;;23.80;78.60;;;;;;5102860;28;20539;-67
2021/07/12 09:52:18;;;;;;;10.25;9.35;;;23.80;78.10;;;;;;5107909;28;20088;-67
2021/07/12 09:54:48;;;;;;;10.43;9.55;;;23.80;77.10;;;;;;5115246;28;20063;-67
2021/07/12 09:57:21;;;;;;;11.82;10.73;;;23.90;76.50;;;;;;5115060;28;20101;-67
2021/07/12 10:00:06;;;;;;;12.27;11.10;;;24.00;76.00;;;;;;5114792;28;20047;-67
2021/07/12 10:02:34;;;;;;;14.63;13.32;;;24.00;75.60;;;;;;5114786;28;20460;-67
2021/07/12 10:05:05;;;;;;;13.73;12.43;;;24.00;75.50;;;;;;5111541;28;20484;-64
2021/07/12 10:07:32;;;;;;;12.48;11.30;;;23.90;75.00;;;;;;5103192;28;20044;-65
2021/07/12 10:09:59;;;;;;;11.77;10.73;;;23.80;75.80;;;;;;5107192;28;20105;-63
2021/07/12 10:12:25;;;;;;;11.15;10.15;;;23.80;76.50;;;;;;5114328;28;20082;-64
2021/07/12 10:14:51;;;;;;;14.85;13.32;;;23.70;76.20;;;;;;5113710;28;20044;-64
2021/07/12 10:17:19;;;;;;;14.25;12.88;;;23.50;76.20;;;;;;5114721;28;20059;-64
2021/07/12 10:19:45;;;;;;;14.65;13.40;;;23.50;76.90;;;;;;5114082;27;20547;-65
2021/07/12 10:22:12;;;;;;;16.00;14.60;;;23.40;77.50;;;;;;5113577;27;20051;-64
2021/07/12 10:24:43;;;;;;;15.77;14.48;;;23.30;77.50;;;;;;5112692;28;20047;-65
2021/07/12 10:27:24;;;;;;;17.88;16.27;;;23.30;77.90;;;;;;5112108;28;20492;-65
2021/07/12 10:29:51;;;;;;;15.68;14.32;;;23.30;77.90;;;;;;5112476;28;20488;-65
2021/07/12 10:32:25;;;;;;;14.45;13.05;;;23.20;78.60;;;;;;5113429;28;20101;-65
2021/07/12 10:34:56;;;;;;;16.00;14.43;;;23.30;79.10;;;;;;5113028;28;20059;-65
2021/07/12 10:37:30;;;;;;;14.45;13.15;;;23.20;79.30;;;;;;5113866;28;20055;-65
2021/07/12 10:40:10;;;;;;;16.13;14.63;;;23.30;79.10;;;;;;5114836;28;20047;-65
2021/07/12 10:42:41;;;;;;;15.90;14.45;;;23.30;79.10;;;;;;5113997;28;20182;-65
2021/07/12 10:45:38;;;;;;;16.73;14.85;;;23.30;79.40;;;;;;5114584;28;20048;-65
2021/07/12 10:48:12;;;;;;;15.73;14.43;;;23.30;79.00;;;;;;5096457;28;20051;-65
2021/07/12 10:50:46;;;;;;;15.85;14.40;;;23.30;78.70;;;;;;5112616;28;20083;-65
2021/07/12 10:53:15;;;;;;;16.55;15.07;;;23.30;78.60;;;;;;5113271;28;20135;-65
2021/07/12 10:55:46;;;;;;;15.93;14.43;;;23.30;78.30;;;;;;5113622;28;20255;-65
2021/07/12 10:58:18;;;;;;;16.50;14.90;;;23.20;78.60;;;;;;5113787;28;20052;-65
2021/07/12 11:00:47;;;;;;;17.05;15.38;;;23.30;79.00;;;;;;5114049;28;20050;-65
2021/07/12 11:03:40;;;;;;;15.95;14.45;;;23.20;79.30;;;;;;5113373;28;20067;-65
2021/07/12 11:06:17;;;;;;;14.27;12.98;;;23.20;79.80;;;;;;5114195;28;20051;-65
2021/07/12 11:08:50;;;;;;;14.68;13.38;;;23.20;79.80;;;;;;5113825;28;20134;-65
2021/07/12 11:11:18;;;;;;;14.73;13.35;;;23.10;79.80;;;;;;5113961;28;20415;-65
2021/07/12 11:14:01;;;;;;;14.95;13.73;;;23.20;79.40;;;;;;5114173;28;20054;-65
2021/07/12 11:16:47;;;;;;;15.43;14.10;;;23.10;78.50;;;;;;5112916;28;20079;-65
2021/07/12 11:19:24;;;;;;;14.27;12.98;;;23.10;78.30;;;;;;5113687;28;20153;-65
2021/07/12 11:21:51;;;;;;;15.85;14.30;;;23.20;77.80;;;;;;5114006;28;20043;-65
2021/07/12 11:24:23;;;;;;;14.23;12.93;;;23.20;77.40;;;;;;5112899;28;20533;-65
2021/07/12 11:26:54;;;;;;;14.82;13.52;;;23.20;78.00;;;;;;5114029;28;20085;-65
2021/07/12 11:29:28;;;;;;;16.38;14.77;;;23.30;78.60;;;;;;5113085;28;20051;-65
2021/07/12 11:31:55;;;;;;;18.75;17.02;;;23.40;78.70;;;;;;5112905;28;20111;-65
2021/07/12 11:34:24;;;;;;;19.23;17.42;;;23.50;77.70;;;;;;5113382;28;20048;-65
2021/07/12 11:37:03;;;;;;;19.23;17.35;;;23.40;77.10;;;;;;5113572;28;20048;-65
2021/07/12 11:39:33;;;;;;;17.75;16.02;;;23.50;76.30;;;;;;5113340;28;20075;-65
2021/07/12 11:42:10;;;;;;;21.30;19.38;;;23.40;76.60;;;;;;5113513;28;20052;-65
2021/07/12 11:44:36;;;;;;;19.92;18.02;;;23.50;76.90;;;;;;5112850;28;20096;-65
2021/07/12 11:47:31;;;;;;;20.27;18.48;;;23.50;77.10;;;;;;5113176;27;20062;-65
2021/07/12 11:50:00;;;;;;;21.73;19.92;;;23.60;77.20;;;;;;5110694;28;20052;-65
2021/07/12 11:52:27;;;;;;;21.55;19.65;;;23.60;77.30;;;;;;5112121;28;20178;-65
2021/07/12 11:55:04;;;;;;;19.45;17.75;;;23.70;76.40;;;;;;5113125;28;20457;-65
2021/07/12 11:57:30;;;;;;;22.13;20.15;;;23.80;76.00;;;;;;5112902;28;20158;-65
2021/07/12 11:59:56;;;;;;;22.55;20.55;;;23.90;76.40;;;;;;5112248;28;20467;-65
2021/07/12 12:02:22;;;;;;;20.38;18.27;;;24.00;76.40;;;;;;5112460;28;20075;-65
2021/07/12 12:04:52;;;;;;;28.25;25.80;;;24.00;76.20;;;;;;5113077;28;20063;-65
2021/07/12 12:07:22;;;;;;;22.40;20.50;;;24.10;75.70;;;;;;5111590;28;20507;-65
2021/07/12 12:09:57;;;;;;;22.07;19.93;;;24.00;75.60;;;;;;5113001;28;20048;-65
2021/07/12 12:12:32;;;;;;;19.35;17.60;;;24.00;76.00;;;;;;5111826;28;20301;-65
2021/07/12 12:15:00;;;;;;;20.35;18.52;;;23.90;76.50;;;;;;5112739;28;20043;-65
2021/07/12 12:17:26;;;;;;;20.38;18.58;;;24.00;75.60;;;;;;5112121;27;20056;-65
2021/07/12 12:20:06;;;;;;;18.75;17.10;;;24.00;74.60;;;;;;5112099;28;20063;-65
2021/07/12 12:22:33;;;;;;;17.85;16.13;;;23.90;74.60;;;;;;5112450;28;20477;-65
2021/07/12 12:24:59;;;;;;;15.70;14.40;;;23.80;75.00;;;;;;5112679;28;20193;-65
2021/07/12 12:27:25;;;;;;;13.93;12.73;;;23.80;74.90;;;;;;5111611;28;20047;-65
2021/07/12 12:29:51;;;;;;;13.73;12.43;;;23.90;75.10;;;;;;5112359;28;20112;-65
2021/07/12 12:32:33;;;;;;;16.27;14.77;;;23.90;75.50;;;;;;5112119;28;20123;-65
2021/07/12 12:35:03;;;;;;;14.82;13.35;;;24.10;73.90;;;;;;5111276;27;20047;-65
2021/07/12 12:37:41;;;;;;;14.38;12.98;;;24.20;73.80;;;;;;5110868;28;20067;-65
2021/07/12 12:40:27;;;;;;;13.85;12.63;;;24.50;74.00;;;;;;5112457;28;20111;-65